createdAt,value
2017-06-23T00:01:08.239Z,26.73
2017-06-23T00:03:36.430Z,32.73
2017-06-23T00:06:04.625Z,38.50
2017-06-23T00:08:33.619Z,29.37
2017-06-23T00:11:02.594Z,24.10
2017-06-23T00:13:30.806Z,27.23
2017-06-23T00:15:59.081Z,25.00
2017-06-23T00:18:27.305Z,23.90
2017-06-23T00:20:55.492Z,19.30
2017-06-23T00:23:24.535Z,25.63
2017-06-23T00:25:52.723Z,25.43
2017-06-23T00:28:20.908Z,25.03
2017-06-23T00:30:49.136Z,43.07
2017-06-23T00:33:17.323Z,25.23
2017-06-23T00:35:45.521Z,28.33
2017-06-23T00:38:13.731Z,31.27
2017-06-23T00:40:42.707Z,28.63
2017-06-23T00:43:10.908Z,29.60
2017-06-23T00:45:39.280Z,28.93
2017-06-23T00:48:08.239Z,28.80
2017-06-23T00:50:36.437Z,23.23
2017-06-23T00:53:05.432Z,26.63
2017-06-23T00:55:33.691Z,30.60
2017-06-23T00:58:01.892Z,48.77
2017-06-23T01:00:30.891Z,25.23
2017-06-23T01:02:59.068Z,26.93
2017-06-23T01:05:27.257Z,34.87
2017-06-23T01:07:55.620Z,24.17
2017-06-23T01:10:23.807Z,25.70
2017-06-23T01:12:52.015Z,24.00
2017-06-23T01:15:20.219Z,32.37
2017-06-23T01:17:48.395Z,28.83
2017-06-23T01:20:16.607Z,30.43
2017-06-23T01:22:44.811Z,28.23
2017-06-23T01:25:13.000Z,27.03
2017-06-23T01:27:41.204Z,26.10
2017-06-23T01:30:09.379Z,20.17
2017-06-23T01:32:37.563Z,21.47
2017-06-23T01:35:05.746Z,22.07
2017-06-23T01:37:34.014Z,24.37
2017-06-23T01:40:02.147Z,24.20
2017-06-23T01:42:31.124Z,25.03
2017-06-23T01:44:59.321Z,32.17
2017-06-23T01:47:27.565Z,26.63
2017-06-23T01:49:55.767Z,24.13
2017-06-23T01:52:23.951Z,34.83
2017-06-23T01:54:52.136Z,28.33
2017-06-23T01:57:20.347Z,25.57
2017-06-23T01:59:48.558Z,28.40
2017-06-23T02:02:17.520Z,26.87
2017-06-23T02:04:45.858Z,22.83
2017-06-23T02:07:14.031Z,27.20
2017-06-23T02:09:42.237Z,30.30
2017-06-23T02:12:10.761Z,30.27
2017-06-23T02:14:39.112Z,28.77
2017-06-23T02:17:08.076Z,26.67
2017-06-23T02:19:36.414Z,29.67
2017-06-23T02:22:04.578Z,29.40
2017-06-23T02:24:32.798Z,32.30
2017-06-23T02:27:01.145Z,28.93
2017-06-23T02:29:29.383Z,30.60
2017-06-23T02:31:58.375Z,26.67
2017-06-23T02:34:27.373Z,27.70
2017-06-23T02:36:56.330Z,26.63
2017-06-23T02:39:24.553Z,29.47
2017-06-23T02:41:53.595Z,30.80
2017-06-23T02:44:21.842Z,31.60
2017-06-23T02:46:50.066Z,33.37
2017-06-23T02:49:19.031Z,30.20
2017-06-23T02:51:47.208Z,27.60
2017-06-23T02:54:15.413Z,34.57
2017-06-23T02:56:44.355Z,30.20
2017-06-23T02:59:12.531Z,33.03
2017-06-23T03:01:40.737Z,24.27
2017-06-23T03:04:09.691Z,32.80
2017-06-23T03:06:37.851Z,31.30
2017-06-23T03:09:06.055Z,33.93
2017-06-23T03:11:34.292Z,29.33
2017-06-23T03:14:02.499Z,38.33
2017-06-23T03:16:30.687Z,32.90
2017-06-23T03:18:58.887Z,35.17
2017-06-23T03:21:27.075Z,29.00
2017-06-23T03:23:55.267Z,34.97
2017-06-23T03:26:23.530Z,29.03
2017-06-23T03:28:52.469Z,38.10
2017-06-23T03:31:20.632Z,31.57
2017-06-23T03:33:48.877Z,34.97
2017-06-23T03:36:17.061Z,33.03
2017-06-23T03:38:45.261Z,35.70
2017-06-23T03:41:13.633Z,33.03
2017-06-23T03:43:41.814Z,31.50
2017-06-23T03:46:10.007Z,30.43
2017-06-23T03:48:38.239Z,31.67
2017-06-23T03:51:06.428Z,31.50
2017-06-23T03:53:34.607Z,33.60
2017-06-23T03:56:02.879Z,40.93
2017-06-23T03:58:31.263Z,32.23
2017-06-23T04:00:59.454Z,40.53
2017-06-23T04:03:28.560Z,45.20
2017-06-23T04:05:56.840Z,38.30
2017-06-23T04:08:25.024Z,31.03
2017-06-23T04:10:53.384Z,32.27
2017-06-23T04:13:22.363Z,42.57
2017-06-23T04:15:51.375Z,31.90
2017-06-23T04:18:19.554Z,38.17
2017-06-23T04:20:47.768Z,38.57
2017-06-23T04:23:15.972Z,36.40
2017-06-23T04:25:44.915Z,28.53
2017-06-23T04:28:13.123Z,29.77
2017-06-23T04:30:41.308Z,35.87
2017-06-23T04:33:10.431Z,30.97
2017-06-23T04:35:38.648Z,34.43
2017-06-23T04:38:06.902Z,41.70
2017-06-23T04:40:35.163Z,32.07
2017-06-23T04:43:03.347Z,48.63
2017-06-23T04:45:31.585Z,39.90
2017-06-23T04:48:00.546Z,35.13
2017-06-23T04:50:28.750Z,34.57
2017-06-23T04:52:57.769Z,42.20
2017-06-23T04:55:26.006Z,31.93
2017-06-23T04:57:54.973Z,38.00
2017-06-23T05:00:23.234Z,42.00
2017-06-23T05:02:51.430Z,34.20
2017-06-23T05:05:19.628Z,34.00
2017-06-23T05:07:48.623Z,39.50
2017-06-23T05:10:17.600Z,36.13
2017-06-23T05:12:45.785Z,37.47
2017-06-23T05:15:14.777Z,26.33
2017-06-23T05:17:43.743Z,25.13
2017-06-23T05:20:11.930Z,28.90
2017-06-23T05:22:40.901Z,31.17
2017-06-23T05:25:09.083Z,31.13
2017-06-23T05:27:37.293Z,35.60
2017-06-23T05:30:05.552Z,35.90
2017-06-23T05:32:33.764Z,33.80
2017-06-23T05:35:01.937Z,35.23
2017-06-23T05:37:30.149Z,35.80
2017-06-23T05:39:58.370Z,34.37
2017-06-23T05:42:26.574Z,32.53
2017-06-23T05:44:54.819Z,26.17
2017-06-23T05:47:22.999Z,35.67
2017-06-23T05:49:51.185Z,29.97
2017-06-23T05:52:19.393Z,34.33
2017-06-23T05:54:47.591Z,28.10
2017-06-23T05:57:16.606Z,28.50
2017-06-23T05:59:44.823Z,31.53
2017-06-23T06:02:13.027Z,32.33
2017-06-23T06:04:42.025Z,21.93
2017-06-23T06:07:10.995Z,27.00
2017-06-23T06:09:39.219Z,30.07
2017-06-23T06:12:07.448Z,29.13
2017-06-23T06:14:36.407Z,28.80
2017-06-23T06:17:04.584Z,30.07
2017-06-23T06:19:32.807Z,20.67
2017-06-23T06:22:01.051Z,25.73
2017-06-23T06:24:29.259Z,24.70
2017-06-23T06:26:57.457Z,29.83
2017-06-23T06:29:25.644Z,28.53
2017-06-23T06:31:53.901Z,29.83
2017-06-23T06:34:22.076Z,25.60
2017-06-23T06:36:50.264Z,29.17
2017-06-23T06:39:18.498Z,22.30
2017-06-23T06:41:46.687Z,27.57
2017-06-23T06:44:14.884Z,26.00
2017-06-23T06:46:43.140Z,21.73
2017-06-23T06:49:11.325Z,22.10
2017-06-23T06:51:39.571Z,19.93
2017-06-23T06:54:07.864Z,21.40
2017-06-23T06:56:36.095Z,25.63
2017-06-23T06:59:05.040Z,20.63
2017-06-23T07:01:33.280Z,22.87
2017-06-23T07:04:01.468Z,28.73
2017-06-23T07:06:29.670Z,19.70
2017-06-23T07:08:58.022Z,23.40
2017-06-23T07:11:26.205Z,19.40
2017-06-23T07:13:54.389Z,22.00
2017-06-23T07:16:22.615Z,25.83
2017-06-23T07:18:51.639Z,29.63
2017-06-23T07:21:19.813Z,22.30
2017-06-23T07:23:48.131Z,25.10
2017-06-23T07:26:16.331Z,21.40
2017-06-23T07:28:45.298Z,32.23
2017-06-23T07:31:13.721Z,24.57
2017-06-23T07:33:41.963Z,19.80
2017-06-23T07:36:10.950Z,21.53
2017-06-23T07:38:39.197Z,23.03
2017-06-23T07:41:07.384Z,20.67
2017-06-23T07:43:35.584Z,25.40
2017-06-23T07:46:04.551Z,21.00
2017-06-23T07:48:32.746Z,20.20
2017-06-23T07:51:01.794Z,22.33
2017-06-23T07:53:29.998Z,25.00
2017-06-23T07:55:58.205Z,16.30
2017-06-23T07:58:26.420Z,22.90
2017-06-23T08:00:54.673Z,16.17
2017-06-23T08:03:22.887Z,22.83
2017-06-23T08:05:51.254Z,23.63
2017-06-23T08:08:19.522Z,17.33
2017-06-23T08:10:47.881Z,26.27
2017-06-23T08:13:16.084Z,22.53
2017-06-23T08:15:44.426Z,19.73
2017-06-23T08:18:12.608Z,16.67
2017-06-23T08:20:40.834Z,20.63
2017-06-23T08:23:09.777Z,19.27
2017-06-23T08:25:37.989Z,20.07
2017-06-23T08:28:06.987Z,16.97
2017-06-23T08:30:35.934Z,22.93
2017-06-23T08:33:04.965Z,19.67
2017-06-23T08:35:33.964Z,20.37
2017-06-23T08:38:02.955Z,21.07
2017-06-23T08:40:31.944Z,23.30
2017-06-23T08:43:00.118Z,20.63
2017-06-23T08:45:28.304Z,18.30
2017-06-23T08:47:56.555Z,18.40
2017-06-23T08:50:24.777Z,20.23
2017-06-23T08:52:52.956Z,17.07
2017-06-23T08:55:21.183Z,16.27
2017-06-23T08:57:50.165Z,15.57
2017-06-23T09:00:18.596Z,23.03
2017-06-23T09:02:46.844Z,13.47
2017-06-23T09:05:15.036Z,19.23
2017-06-23T09:07:43.326Z,15.00
2017-06-23T09:10:11.504Z,17.43
2017-06-23T09:12:39.712Z,19.03
2017-06-23T09:15:07.920Z,18.63
2017-06-23T09:17:36.130Z,15.67
2017-06-23T09:20:04.282Z,15.60
2017-06-23T09:22:32.502Z,20.53
2017-06-23T09:25:00.689Z,18.47
2017-06-23T09:27:28.909Z,12.40
2017-06-23T09:29:57.129Z,18.10
2017-06-23T09:32:25.299Z,16.83
2017-06-23T09:34:54.262Z,13.43
2017-06-23T09:37:22.487Z,16.90
2017-06-23T09:39:50.790Z,13.53
2017-06-23T09:42:18.959Z,19.93
2017-06-23T09:44:47.190Z,14.10
2017-06-23T09:47:16.198Z,15.27
2017-06-23T09:49:45.347Z,12.17
2017-06-23T09:52:13.551Z,16.93
2017-06-23T09:54:42.517Z,16.17
2017-06-23T09:57:10.752Z,16.20
2017-06-23T09:59:38.939Z,14.30
2017-06-23T10:02:07.113Z,17.47
2017-06-23T10:04:35.387Z,17.63
2017-06-23T10:07:03.560Z,13.63
2017-06-23T10:09:31.763Z,11.70
2017-06-23T10:11:59.984Z,16.60
2017-06-23T10:14:28.164Z,18.80
2017-06-23T10:16:56.339Z,19.70
2017-06-23T10:19:24.563Z,14.30
2017-06-23T10:21:52.752Z,17.30
2017-06-23T10:24:20.956Z,15.13
2017-06-23T10:26:49.184Z,16.40
2017-06-23T10:29:17.416Z,18.97
2017-06-23T10:31:45.594Z,16.03
2017-06-23T10:34:13.819Z,15.57
2017-06-23T10:36:42.844Z,15.83
2017-06-23T10:39:11.082Z,10.40
2017-06-23T10:41:39.255Z,15.00
2017-06-23T10:44:07.528Z,16.27
2017-06-23T10:46:35.781Z,11.83
2017-06-23T10:49:04.096Z,12.90
2017-06-23T10:51:32.282Z,15.67
2017-06-23T10:54:00.491Z,18.20
2017-06-23T10:56:28.840Z,12.33
2017-06-23T10:58:57.028Z,14.13
2017-06-23T11:01:25.260Z,18.60
2017-06-23T11:03:54.282Z,20.63
2017-06-23T11:06:22.945Z,14.60
2017-06-23T11:08:52.035Z,11.53
2017-06-23T11:11:21.045Z,15.60
2017-06-23T11:13:49.279Z,14.10
2017-06-23T11:16:17.467Z,14.23
2017-06-23T11:18:46.489Z,15.70
2017-06-23T11:21:14.781Z,16.47
2017-06-23T11:23:43.818Z,11.30
2017-06-23T11:26:12.056Z,18.40
2017-06-23T11:28:40.276Z,16.27
2017-06-23T11:31:08.460Z,14.23
2017-06-23T11:33:36.776Z,13.03
2017-06-23T11:36:04.944Z,9.87
2017-06-23T11:38:33.142Z,15.00
2017-06-23T11:41:01.395Z,12.60
2017-06-23T11:43:29.593Z,14.27
2017-06-23T11:45:57.883Z,12.40
2017-06-23T11:48:26.072Z,16.63
2017-06-23T11:50:55.062Z,12.67
2017-06-23T11:53:24.032Z,10.20
2017-06-23T11:55:52.222Z,13.00
2017-06-23T11:58:20.433Z,10.57
2017-06-23T12:00:48.911Z,11.60
2017-06-23T12:03:17.138Z,14.17
2017-06-23T12:05:45.379Z,11.57
2017-06-23T12:08:13.555Z,13.63
2017-06-23T12:10:41.776Z,14.30
2017-06-23T12:13:10.766Z,14.47
2017-06-23T12:15:39.795Z,12.97
2017-06-23T12:18:08.018Z,10.17
2017-06-23T12:20:36.991Z,17.20
2017-06-23T12:23:05.237Z,15.23
2017-06-23T12:25:33.516Z,14.70
2017-06-23T12:28:01.754Z,14.17
2017-06-23T12:30:30.766Z,12.53
2017-06-23T12:32:59.041Z,18.90
2017-06-23T12:35:27.235Z,15.10
2017-06-23T12:37:55.551Z,11.57
2017-06-23T12:40:23.755Z,12.97
2017-06-23T12:42:51.923Z,10.77
2017-06-23T12:45:20.107Z,8.87
2017-06-23T12:47:48.340Z,17.60
2017-06-23T12:50:16.527Z,12.00
2017-06-23T12:52:45.533Z,16.93
2017-06-23T12:55:14.536Z,9.17
2017-06-23T12:57:42.828Z,11.53
2017-06-23T13:00:11.036Z,13.77
2017-06-23T13:02:39.309Z,12.77
2017-06-23T13:05:07.512Z,13.13
2017-06-23T13:07:36.740Z,12.90
2017-06-23T13:10:04.994Z,14.30
2017-06-23T13:12:34.360Z,10.50
2017-06-23T13:15:02.554Z,12.47
2017-06-23T13:17:32.027Z,12.50
2017-06-23T13:20:00.226Z,13.33
2017-06-23T13:22:29.276Z,14.80
2017-06-23T13:24:57.503Z,15.47
2017-06-23T13:27:25.682Z,18.40
2017-06-23T13:29:53.862Z,17.93
2017-06-23T13:32:22.173Z,10.93
2017-06-23T13:34:50.468Z,10.20
2017-06-23T13:37:18.651Z,10.83
2017-06-23T13:39:47.242Z,17.10
2017-06-23T13:42:16.249Z,12.00
2017-06-23T13:44:45.217Z,16.07
2017-06-23T13:47:13.817Z,12.50
2017-06-23T13:49:42.771Z,12.00
2017-06-23T13:52:11.209Z,15.03
2017-06-23T13:54:39.466Z,13.50
2017-06-23T13:57:08.432Z,13.20
2017-06-23T13:59:36.632Z,14.43
2017-06-23T14:02:04.871Z,11.20
2017-06-23T14:04:33.076Z,13.50
2017-06-23T14:07:02.026Z,15.83
2017-06-23T14:09:30.242Z,16.53
2017-06-23T14:11:59.210Z,12.63
2017-06-23T14:14:27.516Z,16.57
2017-06-23T14:16:55.817Z,16.67
2017-06-23T14:19:23.994Z,12.30
2017-06-23T14:21:52.344Z,14.70
2017-06-23T14:24:21.327Z,16.13
2017-06-23T14:26:49.559Z,17.47
2017-06-23T14:29:17.794Z,13.00
2017-06-23T14:31:46.027Z,13.23
2017-06-23T14:34:14.599Z,13.87
2017-06-23T14:36:42.843Z,10.17
2017-06-23T14:39:11.049Z,13.67
2017-06-23T14:41:39.267Z,12.87
2017-06-23T14:44:07.583Z,16.87
2017-06-23T14:46:35.878Z,17.30
2017-06-23T14:49:04.070Z,18.20
2017-06-23T14:51:33.045Z,19.60
2017-06-23T14:54:01.264Z,14.63
2017-06-23T14:56:29.427Z,13.10
2017-06-23T14:58:57.626Z,14.53
2017-06-23T15:01:26.674Z,11.93
2017-06-23T15:03:55.618Z,12.80
2017-06-23T15:06:23.818Z,11.70
2017-06-23T15:08:52.024Z,13.30
2017-06-23T15:11:20.234Z,14.83
2017-06-23T15:13:48.446Z,9.67
2017-06-23T15:16:16.694Z,14.13
2017-06-23T15:18:44.951Z,14.60
2017-06-23T15:21:13.151Z,15.60
2017-06-23T15:23:41.385Z,14.87
2017-06-23T15:26:09.641Z,12.97
2017-06-23T15:28:37.844Z,14.67
2017-06-23T15:31:06.040Z,15.77
2017-06-23T15:33:34.248Z,14.80
2017-06-23T15:36:03.281Z,15.23
2017-06-23T15:38:31.555Z,12.33
2017-06-23T15:40:59.779Z,17.47
2017-06-23T15:43:27.985Z,17.47
2017-06-23T15:45:56.164Z,13.87
2017-06-23T15:48:24.370Z,13.53
2017-06-23T15:50:52.561Z,14.50
2017-06-23T15:53:20.741Z,13.90
2017-06-23T15:55:48.979Z,12.20
2017-06-23T15:58:17.164Z,15.30
2017-06-23T16:00:45.372Z,22.57
2017-06-23T16:03:14.494Z,11.93
2017-06-23T16:05:42.792Z,13.30
2017-06-23T16:08:11.084Z,18.70
2017-06-23T16:10:39.359Z,13.43
2017-06-23T16:13:07.543Z,14.43
2017-06-23T16:15:35.760Z,15.50
2017-06-23T16:18:04.689Z,20.10
2017-06-23T16:20:32.873Z,18.07
2017-06-23T16:23:01.060Z,14.20
2017-06-23T16:25:29.279Z,18.23
2017-06-23T16:27:57.507Z,16.17
2017-06-23T16:30:25.704Z,16.57
2017-06-23T16:32:54.733Z,14.90
2017-06-23T16:35:23.026Z,9.90
2017-06-23T16:37:51.208Z,9.07
2017-06-23T16:40:19.432Z,17.17
2017-06-23T16:42:48.389Z,13.80
2017-06-23T16:45:16.614Z,14.60
2017-06-23T16:47:44.854Z,15.70
2017-06-23T16:50:13.108Z,19.53
2017-06-23T16:52:41.342Z,11.83
2017-06-23T16:55:09.578Z,10.17
2017-06-23T16:57:38.546Z,12.23
2017-06-23T17:00:07.037Z,10.53
2017-06-23T17:02:35.302Z,15.30
2017-06-23T17:05:03.545Z,23.90
2017-06-23T17:07:31.756Z,14.63
2017-06-23T17:09:59.948Z,11.37
2017-06-23T17:12:28.972Z,23.90
2017-06-23T17:14:57.249Z,16.30
2017-06-23T17:17:25.449Z,19.50
2017-06-23T17:19:53.919Z,11.63
2017-06-23T17:22:22.138Z,15.27
2017-06-23T17:24:50.301Z,11.53
2017-06-23T17:27:18.536Z,15.83
2017-06-23T17:29:46.826Z,9.93
2017-06-23T17:32:15.029Z,15.43
2017-06-23T17:34:43.513Z,16.00
2017-06-23T17:37:12.481Z,12.43
2017-06-23T17:39:40.672Z,19.00
2017-06-23T17:42:09.887Z,18.83
2017-06-23T17:44:38.823Z,15.67
2017-06-23T17:47:07.147Z,27.30
2017-06-23T17:49:36.151Z,14.00
2017-06-23T17:52:04.379Z,18.20
2017-06-23T17:54:32.673Z,23.00
2017-06-23T17:57:00.886Z,9.10
2017-06-23T17:59:29.117Z,18.23
2017-06-23T18:01:57.306Z,58.60
2017-06-23T18:04:26.343Z,23.83
2017-06-23T18:06:54.558Z,41.40
2017-06-23T18:09:22.759Z,15.37
2017-06-23T18:11:51.009Z,19.40
2017-06-23T18:14:19.201Z,44.53
2017-06-23T18:16:47.488Z,23.23
2017-06-23T18:19:16.491Z,24.57
2017-06-23T18:21:44.691Z,22.47
2017-06-23T18:24:12.864Z,26.17
2017-06-23T18:26:41.094Z,13.03
2017-06-23T18:29:10.235Z,27.87
2017-06-23T18:31:38.450Z,27.77
2017-06-23T18:34:06.874Z,12.57
2017-06-23T18:36:35.050Z,44.30
2017-06-23T18:39:03.249Z,21.57
2017-06-23T18:41:31.487Z,18.87
2017-06-23T18:43:59.685Z,28.03
2017-06-23T18:46:27.873Z,23.03
2017-06-23T18:48:56.119Z,14.20
2017-06-23T18:51:24.357Z,23.53
2017-06-23T18:53:53.415Z,8.20
2017-06-23T18:56:21.657Z,8.60
2017-06-23T18:58:49.854Z,11.40
2017-06-23T19:01:18.104Z,14.77
2017-06-23T19:03:46.381Z,14.63
2017-06-23T19:06:14.563Z,10.50
2017-06-23T19:08:42.770Z,12.17
2017-06-23T19:11:11.022Z,14.20
2017-06-23T19:13:39.266Z,17.50
2017-06-23T19:16:08.612Z,17.07
2017-06-23T19:18:36.833Z,14.37
2017-06-23T19:21:05.023Z,13.63
2017-06-23T19:23:33.224Z,11.47
2017-06-23T19:26:02.337Z,12.63
2017-06-23T19:28:31.283Z,17.37
2017-06-23T19:30:59.603Z,25.63
2017-06-23T19:33:27.845Z,11.33
2017-06-23T19:35:56.243Z,19.17
2017-06-23T19:38:24.502Z,12.90
2017-06-23T19:40:52.717Z,17.87
2017-06-23T19:43:20.921Z,13.97
2017-06-23T19:45:49.138Z,41.17
2017-06-23T19:48:17.372Z,24.13
2017-06-23T19:50:45.645Z,48.50
2017-06-23T19:53:13.840Z,38.90
2017-06-23T19:55:42.131Z,18.97
2017-06-23T19:58:10.336Z,12.70
2017-06-23T20:00:38.551Z,61.60
2017-06-23T20:03:06.825Z,21.53
2017-06-23T20:05:35.033Z,38.33
2017-06-23T20:08:03.234Z,96.20
2017-06-23T20:10:32.267Z,113.80
2017-06-23T20:13:00.480Z,36.10
2017-06-23T20:15:28.677Z,105.17
2017-06-23T20:17:56.986Z,101.20
2017-06-23T20:20:25.199Z,26.37
2017-06-23T20:22:53.419Z,84.77
2017-06-23T20:25:21.631Z,76.33
2017-06-23T20:27:49.807Z,62.47
2017-06-23T20:30:17.991Z,24.77
2017-06-23T20:32:47.004Z,35.10
2017-06-23T20:35:15.203Z,50.03
2017-06-23T20:37:43.412Z,53.00
2017-06-23T20:40:11.578Z,44.27
2017-06-23T20:42:39.775Z,50.47
2017-06-23T20:45:08.005Z,47.43
2017-06-23T20:47:36.224Z,26.13
2017-06-23T20:50:04.402Z,35.50
2017-06-23T20:52:33.419Z,45.20
2017-06-23T20:55:01.643Z,19.90
2017-06-23T20:57:29.812Z,16.10
2017-06-23T20:59:58.328Z,11.40
2017-06-23T21:02:26.516Z,13.53
2017-06-23T21:04:54.761Z,18.07
2017-06-23T21:07:22.935Z,18.93
2017-06-23T21:09:51.121Z,10.80
2017-06-23T21:12:20.144Z,18.70
2017-06-23T21:14:48.351Z,17.00
2017-06-23T21:17:16.531Z,57.53
2017-06-23T21:19:44.772Z,26.70
2017-06-23T21:22:13.114Z,11.27
2017-06-23T21:24:42.251Z,11.47
2017-06-23T21:27:10.482Z,8.60
2017-06-23T21:29:39.456Z,12.90
2017-06-23T21:32:07.681Z,11.97
2017-06-23T21:34:36.062Z,11.63
2017-06-23T21:37:04.287Z,16.80
2017-06-23T21:39:32.454Z,7.80
2017-06-23T21:42:00.691Z,13.73
2017-06-23T21:44:28.892Z,15.47
2017-06-23T21:46:57.104Z,14.43
2017-06-23T21:49:26.091Z,8.63
2017-06-23T21:51:55.117Z,9.33
2017-06-23T21:54:23.367Z,8.17
2017-06-23T21:56:51.613Z,8.50
2017-06-23T21:59:19.814Z,12.53
2017-06-23T22:01:48.770Z,9.60
2017-06-23T22:04:16.976Z,10.33
2017-06-23T22:06:46.240Z,11.07
2017-06-23T22:09:14.726Z,10.80
2017-06-23T22:11:42.952Z,9.63
2017-06-23T22:14:11.286Z,12.03
2017-06-23T22:16:40.314Z,11.70
2017-06-23T22:19:08.539Z,13.47
2017-06-23T22:21:36.780Z,11.63
2017-06-23T22:24:05.040Z,11.67
2017-06-23T22:26:33.226Z,13.80
2017-06-23T22:29:01.498Z,8.37
2017-06-23T22:31:29.736Z,12.07
2017-06-23T22:33:58.748Z,12.77
2017-06-23T22:36:26.989Z,14.90
2017-06-23T22:38:55.975Z,8.80
2017-06-23T22:41:24.200Z,10.03
2017-06-23T22:43:52.396Z,10.70
2017-06-23T22:46:20.576Z,13.03
2017-06-23T22:48:48.824Z,11.13
2017-06-23T22:51:17.001Z,13.13
2017-06-23T22:53:45.223Z,10.00
2017-06-23T22:56:14.235Z,8.93
2017-06-23T22:58:42.444Z,14.23
2017-06-23T23:01:10.643Z,14.13
2017-06-23T23:03:38.857Z,8.23
2017-06-23T23:06:07.112Z,12.33
2017-06-23T23:08:36.092Z,8.00
2017-06-23T23:11:04.555Z,15.53
2017-06-23T23:13:32.817Z,7.50
2017-06-23T23:16:01.037Z,12.93
2017-06-23T23:18:29.362Z,14.90
2017-06-23T23:20:57.563Z,11.73
2017-06-23T23:23:25.797Z,10.10
2017-06-23T23:25:54.115Z,8.97
2017-06-23T23:28:22.450Z,12.23
2017-06-23T23:30:50.931Z,9.70
2017-06-23T23:33:19.162Z,9.17
2017-06-23T23:35:48.108Z,10.93
2017-06-23T23:38:16.352Z,10.47
2017-06-23T23:40:44.567Z,12.30
2017-06-23T23:43:12.757Z,13.47
2017-06-23T23:45:40.937Z,9.33
2017-06-23T23:48:09.183Z,7.97
2017-06-23T23:50:37.421Z,11.10
2017-06-23T23:53:05.620Z,11.70
2017-06-23T23:55:33.868Z,10.90
2017-06-23T23:58:02.069Z,9.50
